Terminal Aerodrome Forecast
Issued by NWS

Home | Current Version | Previous Version | Text Only | Print | Product List | Glossary Off
Versions: 1 2 3 4 5 6 7 8 9 10 11 12

000
FTUS43 KICT 191100
TAFSLN
TAF
KSLN 191124Z 1912/2012 16006KT P6SM SCT050
     FM191700 17012KT P6SM SCT050
     FM200100 16009KT P6SM SCT250=

USA.gov is the U.S. government's official web portal to all federal, state and local government web resources and services.